Time;durP1;ratioP1;P1;durP2;ratioP2;P2;SDS_P1;SDS_P2;PMS_P1;PMS_P2;Temp;Humidity;BMP_temperature;BMP_pressure;BME280_temperature;BME280_humidity;BME280_pressure;Samples;Min_cycle;Max_cycle;Signal;HPM_P1;HPM_P2
2021/03/17 00:00:16;;;;;;;44.63;31.10;;;;;;;5.13;65.45;98630.91;2178828;82;21173;-78
2021/03/17 00:03:19;;;;;;;50.73;33.77;;;;;;;4.27;66.56;98634.61;2178844;81;21133;-78
2021/03/17 00:06:20;;;;;;;54.53;33.43;;;;;;;3.69;67.87;98637.37;2178783;81;21158;-78
2021/03/17 00:09:21;;;;;;;49.60;32.37;;;;;;;3.27;68.93;98637.95;2178978;81;21467;-80
2021/03/17 00:12:22;;;;;;;50.53;32.63;;;;;;;2.99;69.44;98639.03;2179213;81;21164;-80
2021/03/17 00:15:23;;;;;;;57.40;34.17;;;;;;;2.75;70.35;98638.97;2178717;81;21137;-80
2021/03/17 00:18:24;;;;;;;55.77;33.47;;;;;;;2.55;71.50;98642.89;2178563;81;21165;-80
2021/03/17 00:21:25;;;;;;;54.47;34.07;;;;;;;2.40;71.64;98642.69;2178598;81;21534;-80
2021/03/17 00:24:26;;;;;;;50.43;32.87;;;;;;;2.32;72.29;98640.20;2178420;81;21106;-78
2021/03/17 00:27:27;;;;;;;53.83;34.70;;;;;;;2.25;72.72;98641.66;2178569;81;21699;-80
2021/03/17 00:30:29;;;;;;;59.17;33.97;;;;;;;2.89;83.19;98633.94;2179497;81;21487;-80
2021/03/17 00:33:30;;;;;;;51.13;32.27;;;;;;;7.42;85.37;98621.69;2179944;81;21507;-79
2021/03/17 00:36:31;;;;;;;47.63;29.77;;;;;;;10.59;70.22;98616.04;2178844;81;21142;-79
2021/03/17 00:39:33;;;;;;;51.10;31.07;;;;;;;8.78;60.58;98621.20;2178443;82;21754;-79
2021/03/17 00:42:34;;;;;;;42.77;29.43;;;;;;;6.75;61.28;98614.57;2178619;81;21185;-79
2021/03/17 00:45:36;;;;;;;44.57;29.40;;;;;;;5.41;63.21;98627.45;2161359;81;21297;-81
2021/03/17 00:48:37;;;;;;;50.97;31.97;;;;;;;4.59;64.97;98622.76;2161125;82;21272;-79
2021/03/17 00:51:38;;;;;;;44.03;30.90;;;;;;;3.95;67.08;98627.06;2161179;82;21126;-79
2021/03/17 00:54:39;;;;;;;47.90;31.33;;;;;;;3.53;67.86;98635.06;2160282;82;22130;-78
2021/03/17 00:57:40;;;;;;;47.53;30.37;;;;;;;3.28;69.11;98626.81;2160286;82;21288;-79
2021/03/17 01:00:41;;;;;;;48.37;31.47;;;;;;;3.08;69.29;98627.36;2160281;82;21127;-79
2021/03/17 01:03:42;;;;;;;48.97;31.57;;;;;;;2.99;69.75;98630.88;2159945;82;21418;-78
2021/03/17 01:06:43;;;;;;;49.80;31.93;;;;;;;2.92;70.42;98630.18;2160151;82;21143;-79
2021/03/17 01:09:44;;;;;;;52.37;32.13;;;;;;;2.84;70.86;98632.88;2161032;82;21241;-78
2021/03/17 01:12:45;;;;;;;47.77;31.50;;;;;;;2.68;71.90;98630.52;2161673;82;21127;-79
2021/03/17 01:15:46;;;;;;;49.00;31.60;;;;;;;2.55;71.81;98636.86;2160683;82;21241;-78
2021/03/17 01:18:48;;;;;;;51.50;32.90;;;;;;;2.47;72.71;98628.82;2160693;82;21166;-78
2021/03/17 01:21:49;;;;;;;51.97;31.53;;;;;;;2.41;72.50;98635.02;2160600;82;21118;-78
2021/03/17 01:24:50;;;;;;;52.63;32.13;;;;;;;2.37;73.20;98624.13;2160572;82;21281;-78
2021/03/17 01:27:51;;;;;;;50.33;33.10;;;;;;;2.33;73.29;98626.52;2160503;82;21806;-78
2021/03/17 01:30:53;;;;;;;51.03;29.97;;;;;;;2.29;73.70;98628.08;2161241;82;21257;-78
2021/03/17 01:33:54;;;;;;;48.27;31.13;;;;;;;2.26;74.36;98624.09;2160768;82;21099;-78
2021/03/17 01:36:55;;;;;;;50.07;31.73;;;;;;;2.24;73.73;98627.02;2160708;82;21174;-79
2021/03/17 01:39:56;;;;;;;51.87;34.13;;;;;;;2.23;74.02;98625.26;2161634;82;21142;-79
2021/03/17 01:42:57;;;;;;;51.80;33.50;;;;;;;2.23;74.52;98620.98;2161549;81;21165;-79
2021/03/17 01:45:58;;;;;;;51.80;32.63;;;;;;;2.21;74.54;98621.33;2161279;82;21253;-79
2021/03/17 01:49:00;;;;;;;53.60;33.40;;;;;;;2.16;74.56;98631.85;2161616;82;21405;-78
2021/03/17 01:52:01;;;;;;;50.17;33.27;;;;;;;2.10;74.85;98625.57;2161606;82;21264;-78
2021/03/17 01:55:05;;;;;;;56.70;35.10;;;;;;;2.05;75.60;98627.08;2161455;82;21237;-79
2021/03/17 01:58:06;;;;;;;62.98;34.25;;;;;;;2.03;75.10;98631.28;2161725;82;21167;-79
2021/03/17 02:01:07;;;;;;;53.30;33.20;;;;;;;2.02;75.65;98632.98;2161469;82;21115;-75
2021/03/17 02:04:09;;;;;;;57.50;35.03;;;;;;;2.02;75.38;98629.52;2161618;82;21459;-81
2021/03/17 02:07:10;;;;;;;55.53;35.07;;;;;;;2.01;75.99;98631.63;2160825;82;21257;-79
2021/03/17 02:10:11;;;;;;;52.70;34.17;;;;;;;1.98;76.08;98632.78;2161394;82;21254;-79
2021/03/17 02:13:13;;;;;;;59.07;34.60;;;;;;;1.96;76.75;98630.55;2161582;82;21531;-78
2021/03/17 02:16:14;;;;;;;56.30;34.93;;;;;;;1.93;76.23;98635.58;2161453;82;21237;-79
2021/03/17 02:19:18;;;;;;;58.90;35.33;;;;;;;1.92;76.26;98628.26;2161670;82;21289;-77
2021/03/17 02:22:19;;;;;;;59.17;33.83;;;;;;;1.91;76.57;98638.97;2161680;82;21146;-78
2021/03/17 02:25:20;;;;;;;56.47;34.97;;;;;;;1.90;76.61;98634.63;2161429;82;21107;-78
2021/03/17 02:28:21;;;;;;;62.07;38.07;;;;;;;1.91;76.75;98632.94;2161958;82;21158;-78
2021/03/17 02:31:22;;;;;;;66.70;38.30;;;;;;;1.88;77.37;98632.81;2161389;82;21265;-79
2021/03/17 02:34:23;;;;;;;62.13;38.50;;;;;;;1.87;77.83;98633.62;2161128;82;21138;-78
2021/03/17 02:37:24;;;;;;;67.67;40.77;;;;;;;1.81;78.05;98631.67;2161096;82;21299;-78
2021/03/17 02:40:25;;;;;;;68.27;42.97;;;;;;;1.80;78.02;98631.20;2161528;82;21127;-79
2021/03/17 02:43:26;;;;;;;59.73;39.03;;;;;;;2.09;83.17;98632.42;2162739;81;21161;-78
2021/03/17 02:46:28;;;;;;;62.57;39.67;;;;;;;5.86;84.17;98622.20;2178814;82;21432;-79
2021/03/17 02:49:29;;;;;;;63.67;39.63;;;;;;;6.16;69.18;98617.89;2178862;81;21440;-79
2021/03/17 02:52:34;;;;;;;66.70;41.17;;;;;;;4.72;69.15;98628.36;2178641;82;21142;-79
2021/03/17 02:55:35;;;;;;;65.83;42.23;;;;;;;3.73;71.07;98627.61;2178766;82;21368;-78
2021/03/17 02:58:39;;;;;;;67.37;42.37;;;;;;;3.19;71.97;98620.91;2178983;82;21276;-78
2021/03/17 03:01:40;;;;;;;75.60;46.00;;;;;;;2.84;73.21;98631.59;2178957;81;21165;-78
2021/03/17 03:04:41;;;;;;;76.10;45.23;;;;;;;2.55;74.78;98631.30;2178499;81;21459;-77
2021/03/17 03:07:42;;;;;;;79.17;48.77;;;;;;;2.34;74.54;98638.16;2178914;81;21428;-78
2021/03/17 03:10:43;;;;;;;78.97;48.10;;;;;;;2.19;75.54;98634.55;2179357;82;21276;-79
2021/03/17 03:13:44;;;;;;;78.90;47.33;;;;;;;2.07;75.91;98640.89;2179308;81;21137;-79
2021/03/17 03:16:45;;;;;;;81.67;49.93;;;;;;;1.96;76.69;98650.73;2178459;81;21130;-77
2021/03/17 03:19:46;;;;;;;84.80;50.37;;;;;;;1.89;77.00;98639.30;2178017;81;21121;-78
2021/03/17 03:22:47;;;;;;;90.27;53.57;;;;;;;1.85;77.59;98644.26;2178758;81;21126;-78
2021/03/17 03:25:51;;;;;;;89.97;50.57;;;;;;;1.80;77.66;98642.77;2178796;81;21157;-78
2021/03/17 03:28:53;;;;;;;93.03;52.33;;;;;;;1.75;77.57;98645.56;2178946;81;21451;-79
2021/03/17 03:31:54;;;;;;;90.30;52.43;;;;;;;1.70;78.07;98645.73;2178588;81;21255;-78
2021/03/17 03:34:55;;;;;;;87.77;49.13;;;;;;;1.64;78.72;98647.16;2178130;81;21158;-78
2021/03/17 03:37:56;;;;;;;90.13;52.57;;;;;;;1.62;78.03;98653.53;2178275;81;21404;-79
2021/03/17 03:40:57;;;;;;;94.23;52.03;;;;;;;1.59;77.99;98651.70;2178611;81;21348;-78
2021/03/17 03:44:01;;;;;;;88.60;52.50;;;;;;;1.59;78.13;98655.56;2178226;81;21130;-77
2021/03/17 03:47:02;;;;;;;91.20;53.93;;;;;;;1.57;78.80;98658.87;2178371;81;21138;-78
2021/03/17 03:50:03;;;;;;;89.93;51.23;;;;;;;1.55;78.15;98656.64;2178752;81;21423;-79
2021/03/17 03:53:04;;;;;;;92.60;51.60;;;;;;;1.54;78.85;98657.05;2177814;81;21727;-78
2021/03/17 03:56:05;;;;;;;94.90;51.97;;;;;;;1.50;78.71;98666.73;2178233;81;21142;-78
2021/03/17 03:59:06;;;;;;;90.30;54.73;;;;;;;1.49;78.38;98666.26;2179032;81;21277;-79
2021/03/17 04:02:07;;;;;;;104.43;53.83;;;;;;;1.50;78.80;98680.88;2177806;82;21169;-78
2021/03/17 04:05:08;;;;;;;92.30;54.67;;;;;;;1.48;78.95;98679.05;2177926;81;21146;-79
2021/03/17 04:08:09;;;;;;;93.97;51.90;;;;;;;1.46;78.63;98688.39;2178180;81;21142;-78
2021/03/17 04:11:10;;;;;;;99.87;55.27;;;;;;;1.44;78.83;98680.61;2178660;81;21110;-79
2021/03/17 04:14:11;;;;;;;89.90;50.07;;;;;;;1.44;78.56;98683.59;2178044;82;21153;-78
2021/03/17 04:17:13;;;;;;;89.80;51.60;;;;;;;1.41;78.80;98682.16;2178119;81;21491;-79
2021/03/17 04:20:14;;;;;;;89.13;52.70;;;;;;;1.41;78.73;98679.59;2178403;81;21141;-78
2021/03/17 04:23:15;;;;;;;94.90;52.07;;;;;;;1.36;78.71;98673.36;2178511;81;21495;-78
2021/03/17 04:26:16;;;;;;;91.73;52.30;;;;;;;1.35;78.71;98678.91;2178043;81;21142;-78
2021/03/17 04:29:17;;;;;;;91.07;51.57;;;;;;;1.36;78.49;98681.08;2178088;81;21154;-78
2021/03/17 04:32:18;;;;;;;79.07;45.60;;;;;;;1.37;78.59;98683.72;2177116;81;21424;-79
2021/03/17 04:35:19;;;;;;;89.50;51.50;;;;;;;1.35;78.52;98681.48;2177478;81;21106;-78
2021/03/17 04:38:20;;;;;;;94.13;53.17;;;;;;;1.35;78.82;98682.77;2176971;81;21386;-78
2021/03/17 04:41:21;;;;;;;90.40;48.87;;;;;;;1.35;78.60;98689.60;2176498;81;21134;-77
2021/03/17 04:44:22;;;;;;;88.60;49.43;;;;;;;1.31;78.65;98690.27;2172007;81;21614;-78
2021/03/17 04:47:23;;;;;;;92.70;48.67;;;;;;;1.30;78.58;98694.53;2157794;82;21330;-77
2021/03/17 04:50:24;;;;;;;88.30;52.53;;;;;;;1.31;78.57;98690.27;2157286;82;21130;-78
2021/03/17 04:53:25;;;;;;;86.83;49.23;;;;;;;1.31;78.58;98696.70;2157686;82;21770;-78
2021/03/17 04:56:26;;;;;;;92.60;52.23;;;;;;;1.24;78.74;98696.42;2157105;82;21270;-78
2021/03/17 04:59:27;;;;;;;89.57;50.63;;;;;;;1.21;78.49;98695.41;2157642;82;21195;-78
2021/03/17 05:02:28;;;;;;;94.23;52.70;;;;;;;1.22;78.57;98699.73;2157056;82;21622;-78
2021/03/17 05:05:30;;;;;;;97.17;48.53;;;;;;;1.24;78.57;98690.00;2157939;82;21277;-77
2021/03/17 05:08:31;;;;;;;99.53;54.33;;;;;;;1.26;78.60;98697.37;2157756;82;21099;-78
2021/03/17 05:11:32;;;;;;;102.60;53.90;;;;;;;1.28;78.71;98702.59;2158280;82;21115;-77
2021/03/17 05:14:33;;;;;;;96.17;53.53;;;;;;;1.27;78.51;98700.42;2157921;82;21118;-79
2021/03/17 05:17:34;;;;;;;94.30;53.30;;;;;;;1.30;78.57;98706.11;2158678;82;21551;-79
2021/03/17 05:20:35;;;;;;;89.27;48.30;;;;;;;1.25;78.67;98710.16;2158725;82;21257;-78
2021/03/17 05:23:36;;;;;;;86.07;48.60;;;;;;;1.22;78.64;98712.59;2159301;82;21134;-79
2021/03/17 05:26:37;;;;;;;82.77;45.43;;;;;;;1.23;78.82;98706.64;2158576;82;21137;-79
2021/03/17 05:29:38;;;;;;;83.67;46.60;;;;;;;1.23;78.48;98713.06;2157547;82;21555;-78
2021/03/17 05:32:39;;;;;;;83.23;47.27;;;;;;;1.20;78.70;98711.23;2158235;82;21291;-79
2021/03/17 05:35:40;;;;;;;86.10;47.20;;;;;;;1.21;78.86;98714.28;2158428;82;21134;-79
2021/03/17 05:38:41;;;;;;;90.80;48.30;;;;;;;1.22;78.51;98716.45;2158700;82;21701;-79
2021/03/17 05:41:44;;;;;;;91.17;48.20;;;;;;;1.24;78.65;98717.00;2158922;82;21814;-79
2021/03/17 05:44:45;;;;;;;88.40;46.53;;;;;;;1.23;78.66;98716.92;2161280;81;21296;-82
2021/03/17 05:47:46;;;;;;;79.27;45.10;;;;;;;2.66;83.22;98715.91;2169667;82;21236;-80
2021/03/17 05:50:48;;;;;;;74.67;45.20;;;;;;;5.45;79.85;98712.55;2168963;82;21252;-80
2021/03/17 05:53:49;;;;;;;85.00;47.93;;;;;;;7.74;66.36;98706.34;2168924;82;21272;-79
2021/03/17 05:56:50;;;;;;;80.53;45.33;;;;;;;5.54;65.02;98708.06;2169398;82;21449;-79
2021/03/17 05:59:51;;;;;;;71.63;42.17;;;;;;;6.17;69.06;98711.64;2167789;82;21287;-79
2021/03/17 06:02:52;;;;;;;73.23;44.43;;;;;;;8.27;70.67;98704.84;2167301;82;21142;-77
2021/03/17 06:05:53;;;;;;;70.67;41.03;;;;;;;8.98;61.83;98702.20;2167426;82;21252;-78
2021/03/17 06:08:54;;;;;;;75.80;44.63;;;;;;;7.15;61.29;98705.05;2168097;82;21574;-78
2021/03/17 06:11:56;;;;;;;76.77;45.30;;;;;;;5.71;62.84;98715.90;2168342;82;21820;-80
2021/03/17 06:14:57;;;;;;;70.13;44.43;;;;;;;4.37;65.29;98722.86;2168621;82;21165;-79
2021/03/17 06:17:58;;;;;;;78.63;45.63;;;;;;;3.63;67.13;98735.23;2169125;82;21463;-79
2021/03/17 06:20:59;;;;;;;69.00;41.33;;;;;;;3.19;68.90;98736.09;2168754;82;21452;-79
2021/03/17 06:24:02;;;;;;;80.37;43.87;;;;;;;2.81;70.62;98741.02;2167960;82;21157;-81
2021/03/17 06:27:03;;;;;;;70.27;44.17;;;;;;;2.44;71.35;98740.77;2167838;82;21134;-78
2021/03/17 06:30:04;;;;;;;78.03;45.27;;;;;;;2.24;73.10;98746.77;2168689;82;21605;-80
2021/03/17 06:33:05;;;;;;;67.57;40.13;;;;;;;2.02;73.25;98750.52;2168802;82;21393;-80
2021/03/17 06:36:06;;;;;;;60.67;34.97;;;;;;;1.94;74.39;98759.61;2169362;82;21253;-80
2021/03/17 06:39:07;;;;;;;49.90;29.63;;;;;;;1.84;74.26;98759.20;2168227;82;21255;-80
2021/03/17 06:42:09;;;;;;;53.17;31.97;;;;;;;1.81;74.69;98754.32;2168168;82;21142;-80
2021/03/17 06:45:10;;;;;;;52.40;28.80;;;;;;;1.77;74.70;98755.00;2171531;82;21292;-79
2021/03/17 06:48:11;;;;;;;53.53;30.60;;;;;;;1.69;75.08;98771.34;2176956;81;21272;-81
2021/03/17 06:51:13;;;;;;;45.47;28.03;;;;;;;1.65;75.71;98768.16;2176195;82;21622;-80
2021/03/17 06:54:14;;;;;;;48.57;27.93;;;;;;;1.59;75.70;98773.03;2176105;81;21232;-80
2021/03/17 06:57:15;;;;;;;46.63;28.13;;;;;;;1.59;76.21;98765.31;2176248;81;21177;-81
2021/03/17 07:00:16;;;;;;;44.40;27.27;;;;;;;1.65;75.70;98773.71;2175934;81;21256;-79
2021/03/17 07:03:17;;;;;;;47.00;29.07;;;;;;;1.73;75.34;98770.67;2175724;81;21118;-79
2021/03/17 07:06:18;;;;;;;44.40;26.50;;;;;;;1.85;75.11;98778.98;2175927;81;21850;-81
2021/03/17 07:09:19;;;;;;;48.00;27.20;;;;;;;1.96;75.31;98777.28;2175835;81;21269;-78
2021/03/17 07:12:20;;;;;;;47.53;27.53;;;;;;;2.05;74.47;98778.98;2175453;81;21118;-77
2021/03/17 07:15:21;;;;;;;50.23;28.70;;;;;;;2.21;74.47;98774.56;2175461;81;21277;-79
2021/03/17 07:18:23;;;;;;;45.50;26.47;;;;;;;2.32;74.01;98783.16;2175282;81;21288;-79
2021/03/17 07:21:24;;;;;;;44.47;25.80;;;;;;;2.33;73.38;98779.36;2175651;81;21878;-80
2021/03/17 07:24:25;;;;;;;43.00;24.50;;;;;;;2.40;73.53;98785.66;2175202;81;21137;-79
2021/03/17 07:27:26;;;;;;;35.20;22.47;;;;;;;2.36;73.13;98791.08;2175227;81;21276;-78
2021/03/17 07:30:27;;;;;;;33.73;20.63;;;;;;;2.42;72.07;98803.34;2174907;81;21142;-79
2021/03/17 07:33:29;;;;;;;37.53;24.47;;;;;;;2.40;72.15;98792.98;2174800;81;21292;-78
2021/03/17 07:36:30;;;;;;;37.23;22.33;;;;;;;2.38;72.51;98801.45;2174716;81;21149;-78
2021/03/17 07:39:31;;;;;;;31.37;19.53;;;;;;;2.36;72.40;98796.64;2175852;81;21805;-78
2021/03/17 07:42:32;;;;;;;27.40;17.83;;;;;;;2.30;72.11;98797.27;2175499;81;21248;-78
2021/03/17 07:45:33;;;;;;;28.27;17.90;;;;;;;2.27;71.95;98799.70;2170276;81;21138;-78
2021/03/17 07:48:34;;;;;;;29.53;18.93;;;;;;;2.40;72.37;98793.39;2158739;82;21405;-78
2021/03/17 07:51:35;;;;;;;30.33;19.67;;;;;;;2.40;72.37;98793.39;2157822;82;21269;-78
2021/03/17 07:54:36;;;;;;;35.40;22.80;;;;;;;2.43;72.10;98800.84;2156912;82;21134;-79
2021/03/17 07:57:37;;;;;;;36.40;22.23;;;;;;;2.40;72.58;98801.11;2157314;82;21300;-78
2021/03/17 08:00:38;;;;;;;29.90;19.93;;;;;;;2.35;72.98;98803.48;2156845;82;21308;-78
2021/03/17 08:03:39;;;;;;;29.93;19.33;;;;;;;2.30;72.53;98810.14;2156742;82;21265;-81
2021/03/17 08:06:40;;;;;;;26.50;18.33;;;;;;;2.34;71.99;98809.45;2157301;82;21284;-78
2021/03/17 08:09:41;;;;;;;29.80;18.50;;;;;;;2.36;71.89;98802.67;2157282;82;21253;-78
2021/03/17 08:12:43;;;;;;;37.17;19.70;;;;;;;2.45;71.51;98804.36;2157487;82;21142;-78
2021/03/17 08:15:44;;;;;;;33.57;19.87;;;;;;;2.53;71.55;98807.27;2158062;82;21161;-79
2021/03/17 08:18:45;;;;;;;28.80;18.37;;;;;;;2.64;71.22;98807.34;2158695;82;21643;-79
2021/03/17 08:21:46;;;;;;;32.07;19.73;;;;;;;2.76;70.80;98805.28;2158550;82;21123;-78
2021/03/17 08:24:47;;;;;;;28.73;19.57;;;;;;;2.86;70.08;98811.28;2158593;82;21675;-79
2021/03/17 08:27:48;;;;;;;35.03;20.83;;;;;;;2.88;70.19;98802.33;2159056;82;21115;-79
2021/03/17 08:30:49;;;;;;;34.33;20.90;;;;;;;2.98;70.11;98826.38;2158028;82;21257;-79
2021/03/17 08:33:50;;;;;;;30.97;20.17;;;;;;;2.90;70.49;98810.13;2157047;82;21257;-77
2021/03/17 08:36:52;;;;;;;33.97;19.20;;;;;;;2.86;70.15;98822.01;2156638;82;21635;-77
2021/03/17 08:39:53;;;;;;;35.03;20.93;;;;;;;2.88;70.39;98816.51;2157144;82;21130;-77
2021/03/17 08:42:54;;;;;;;29.07;18.87;;;;;;;2.98;70.05;98817.36;2157854;82;21115;-79
2021/03/17 08:45:55;;;;;;;28.73;18.37;;;;;;;3.17;69.64;98818.58;2157161;81;21348;-77
2021/03/17 08:48:57;;;;;;;24.37;16.10;;;;;;;3.33;68.25;98807.58;2157100;82;21552;-79
2021/03/17 08:51:58;;;;;;;23.70;16.23;;;;;;;3.41;67.51;98813.92;2156835;82;21179;-77
2021/03/17 08:54:59;;;;;;;22.60;15.40;;;;;;;3.54;67.22;98816.60;2156734;82;21867;-79
2021/03/17 08:58:01;;;;;;;21.80;15.13;;;;;;;3.60;66.73;98803.94;2157084;82;21501;-78
2021/03/17 09:01:03;;;;;;;23.27;13.90;;;;;;;3.72;66.97;98803.98;2157271;82;21269;-80
2021/03/17 09:04:04;;;;;;;22.30;14.13;;;;;;;3.93;65.50;98814.66;2156300;82;21153;-78
2021/03/17 09:07:05;;;;;;;49.23;25.13;;;;;;;3.86;65.32;98814.83;2156299;82;21261;-77
2021/03/17 09:10:06;;;;;;;37.77;20.30;;;;;;;3.83;67.01;98806.56;2156593;82;21119;-79
2021/03/17 09:13:07;;;;;;;19.07;13.87;;;;;;;3.71;66.67;98808.69;2156811;82;21142;-79
2021/03/17 09:16:08;;;;;;;16.67;12.63;;;;;;;3.78;64.79;98804.63;2157584;82;21662;-78
2021/03/17 09:19:09;;;;;;;21.40;13.53;;;;;;;3.90;64.83;98814.54;2156381;82;21336;-78
2021/03/17 09:22:10;;;;;;;25.80;18.30;;;;;;;4.11;64.43;98812.34;2157172;82;21126;-77
2021/03/17 09:25:11;;;;;;;26.27;18.90;;;;;;;4.26;64.76;98813.30;2157493;82;21130;-79
2021/03/17 09:28:12;;;;;;;27.53;18.90;;;;;;;4.09;64.72;98822.14;2158184;82;21281;-78
2021/03/17 09:31:13;;;;;;;27.27;18.63;;;;;;;3.87;65.23;98823.05;2157844;82;21555;-78
2021/03/17 09:34:14;;;;;;;35.00;19.13;;;;;;;3.76;65.00;98823.94;2156523;82;21277;-80
2021/03/17 09:37:16;;;;;;;28.27;18.20;;;;;;;3.68;65.86;98826.63;2156960;82;21293;-79
2021/03/17 09:40:17;;;;;;;25.67;17.63;;;;;;;3.55;65.78;98826.10;2157406;82;21147;-78
2021/03/17 09:43:18;;;;;;;32.37;16.20;;;;;;;3.53;64.92;98842.81;2157320;82;21288;-79
2021/03/17 09:46:19;;;;;;;27.33;17.93;;;;;;;3.38;64.43;98843.06;2164698;81;21585;-79
2021/03/17 09:49:20;;;;;;;35.60;22.90;;;;;;;3.30;64.98;98843.16;2176297;81;21248;-77
2021/03/17 09:52:22;;;;;;;35.97;22.87;;;;;;;3.17;66.07;98847.36;2175978;81;21260;-78
2021/03/17 09:55:23;;;;;;;26.70;18.43;;;;;;;3.08;65.77;98844.41;2175262;81;21276;-79
2021/03/17 09:58:24;;;;;;;31.07;18.03;;;;;;;3.15;65.08;98847.30;2174602;81;21190;-79
2021/03/17 10:01:25;;;;;;;24.30;15.70;;;;;;;3.48;64.91;98845.22;2175376;81;21252;-79
2021/03/17 10:04:26;;;;;;;26.43;17.17;;;;;;;3.81;63.29;98841.77;2175705;81;21296;-78
2021/03/17 10:07:27;;;;;;;27.43;19.20;;;;;;;3.82;62.75;98838.38;2175793;81;21130;-78
2021/03/17 10:10:28;;;;;;;31.10;19.37;;;;;;;3.79;63.49;98842.13;2175414;81;21267;-79
2021/03/17 10:13:29;;;;;;;32.83;18.73;;;;;;;3.73;63.01;98844.88;2175873;81;21126;-79
2021/03/17 10:16:30;;;;;;;25.73;18.40;;;;;;;3.60;63.34;98844.81;2176317;81;21181;-79
2021/03/17 10:19:32;;;;;;;27.87;18.00;;;;;;;3.76;63.55;98834.27;2176595;81;21304;-78
2021/03/17 10:22:33;;;;;;;33.37;18.33;;;;;;;3.90;62.72;98839.07;2176861;81;21578;-78
2021/03/17 10:25:34;;;;;;;21.63;16.27;;;;;;;3.81;63.01;98840.48;2175367;81;21265;-78
2021/03/17 10:28:35;;;;;;;24.80;16.10;;;;;;;3.96;62.66;98850.92;2175880;81;21252;-79
2021/03/17 10:31:36;;;;;;;21.70;14.23;;;;;;;4.02;61.91;98855.03;2175916;81;21240;-78
2021/03/17 10:34:37;;;;;;;21.57;15.23;;;;;;;3.97;61.24;98838.06;2174233;81;21962;-75
2021/03/17 10:37:38;;;;;;;21.73;15.63;;;;;;;3.95;62.07;98837.54;2174330;82;21328;-78
2021/03/17 10:40:40;;;;;;;22.60;14.40;;;;;;;3.93;61.65;98837.89;2174634;82;21172;-78
2021/03/17 10:43:41;;;;;;;20.93;14.57;;;;;;;3.88;61.83;98831.27;2174610;81;21335;-78
2021/03/17 10:46:42;;;;;;;20.77;14.17;;;;;;;3.94;62.16;98833.20;2173721;81;21162;-78
2021/03/17 10:49:44;;;;;;;18.87;14.37;;;;;;;3.94;60.75;98830.62;2176338;81;21110;-80
2021/03/17 10:52:45;;;;;;;16.13;11.77;;;;;;;3.89;60.33;98838.60;2175151;82;21252;-79
2021/03/17 10:55:47;;;;;;;44.47;13.80;;;;;;;3.88;60.03;98825.22;2175129;81;21264;-79
2021/03/17 10:58:49;;;;;;;27.53;15.43;;;;;;;3.95;60.31;98829.80;2175627;81;21347;-78
2021/03/17 11:01:51;;;;;;;21.77;14.27;;;;;;;4.05;59.68;98835.36;2175016;81;21244;-78
2021/03/17 11:04:52;;;;;;;21.63;13.73;;;;;;;4.07;59.70;98826.38;2173478;81;21090;-77
2021/03/17 11:07:53;;;;;;;17.70;12.23;;;;;;;4.12;59.41;98831.30;2174832;81;21098;-78
2021/03/17 11:10:54;;;;;;;14.97;11.67;;;;;;;4.08;59.39;98825.55;2175154;81;21245;-78
2021/03/17 11:13:56;;;;;;;17.30;12.37;;;;;;;3.95;59.52;98818.17;2175311;82;21260;-77
2021/03/17 11:16:57;;;;;;;61.63;14.70;;;;;;;3.84;60.40;98826.40;2175922;81;21257;-78
2021/03/17 11:19:58;;;;;;;17.73;12.07;;;;;;;3.95;60.24;98833.67;2174331;81;21166;-77
2021/03/17 11:23:00;;;;;;;18.00;13.07;;;;;;;4.03;59.12;98834.84;2173632;81;21970;-77
2021/03/17 11:26:01;;;;;;;23.90;12.70;;;;;;;3.99;59.31;98833.84;2175375;81;21225;-77
2021/03/17 11:29:02;;;;;;;14.37;11.43;;;;;;;3.93;59.01;98842.65;2175516;81;21122;-80
2021/03/17 11:32:03;;;;;;;15.87;12.40;;;;;;;3.83;58.51;98834.09;2174596;82;21249;-78
2021/03/17 11:35:04;;;;;;;19.67;12.10;;;;;;;3.81;58.90;98835.73;2175450;81;21248;-77
2021/03/17 11:38:06;;;;;;;24.63;12.50;;;;;;;3.79;58.69;98833.09;2175427;81;21190;-80
2021/03/17 11:41:07;;;;;;;18.00;11.20;;;;;;;3.82;59.47;98826.75;2175791;82;21252;-79
2021/03/17 11:44:08;;;;;;;16.30;12.33;;;;;;;3.88;59.33;98831.68;2176012;81;21887;-79
2021/03/17 11:47:09;;;;;;;18.20;14.33;;;;;;;3.91;59.84;98830.09;2176262;81;21157;-80
2021/03/17 11:50:10;;;;;;;18.23;14.70;;;;;;;3.90;59.21;98845.53;2175534;81;21472;-79
2021/03/17 11:53:11;;;;;;;25.77;14.33;;;;;;;3.77;60.07;98837.31;2175146;81;21137;-79
2021/03/17 11:56:12;;;;;;;14.73;13.10;;;;;;;3.77;59.69;98845.06;2175714;81;21146;-78
2021/03/17 11:59:13;;;;;;;15.77;12.43;;;;;;;3.76;59.08;98854.03;2176159;81;21665;-77
2021/03/17 12:02:15;;;;;;;14.07;12.17;;;;;;;3.76;59.18;98845.00;2174827;82;21252;-79
2021/03/17 12:05:16;;;;;;;16.77;13.23;;;;;;;3.87;59.37;98841.53;2175000;81;21126;-79
2021/03/17 12:08:17;;;;;;;47.70;14.13;;;;;;;3.92;58.39;98836.14;2175497;81;21249;-77
2021/03/17 12:11:19;;;;;;;14.67;12.00;;;;;;;3.92;58.37;98835.72;2176204;81;21260;-78
2021/03/17 12:14:20;;;;;;;18.10;12.43;;;;;;;3.93;58.45;98831.03;2176073;81;21145;-80
2021/03/17 12:17:21;;;;;;;14.93;11.40;;;;;;;3.96;58.70;98833.73;2175962;81;21272;-78
2021/03/17 12:20:22;;;;;;;13.80;11.97;;;;;;;4.02;58.44;98830.49;2175489;81;21244;-79
2021/03/17 12:23:23;;;;;;;12.67;11.20;;;;;;;4.07;58.25;98820.80;2175561;81;21122;-78
2021/03/17 12:26:24;;;;;;;12.57;11.23;;;;;;;4.18;58.34;98823.77;2176203;81;21240;-78
2021/03/17 12:29:25;;;;;;;11.77;10.40;;;;;;;4.29;58.01;98821.58;2174548;81;21146;-78
2021/03/17 12:32:26;;;;;;;11.77;10.47;;;;;;;4.38;58.19;98819.36;2175798;81;21248;-78
2021/03/17 12:35:27;;;;;;;14.20;10.27;;;;;;;4.51;57.45;98821.96;2174705;81;21260;-76
2021/03/17 12:38:28;;;;;;;11.77;10.53;;;;;;;4.61;57.10;98820.16;2174995;81;21304;-79
2021/03/17 12:41:29;;;;;;;12.63;10.07;;;;;;;4.71;56.80;98816.66;2174013;81;21137;-78
2021/03/17 12:44:30;;;;;;;11.97;10.27;;;;;;;4.78;57.27;98823.80;2173984;81;21141;-77
2021/03/17 12:47:31;;;;;;;71.17;13.93;;;;;;;4.83;56.42;98825.66;2174398;81;21190;-80
2021/03/17 12:50:32;;;;;;;17.37;14.53;;;;;;;4.82;57.17;98819.61;2174717;81;21280;-76
2021/03/17 12:53:34;;;;;;;35.03;20.30;;;;;;;4.69;57.29;98829.95;2173851;81;21506;-78
2021/03/17 12:56:35;;;;;;;22.67;15.50;;;;;;;4.42;58.69;98825.10;2174159;81;21559;-78
2021/03/17 12:59:36;;;;;;;19.70;13.50;;;;;;;4.31;58.96;98825.98;2174099;81;21324;-78
2021/03/17 13:02:37;;;;;;;28.63;16.83;;;;;;;4.20;59.54;98837.63;2173565;81;21256;-81
2021/03/17 13:05:38;;;;;;;20.47;10.60;;;;;;;4.19;59.51;98837.16;2172746;81;21161;-79
2021/03/17 13:08:39;;;;;;;10.00;8.97;;;;;;;4.20;59.18;98841.50;2172561;81;21265;-80
2021/03/17 13:11:40;;;;;;;18.40;9.33;;;;;;;4.27;58.58;98843.48;2172135;81;21261;-79
2021/03/17 13:14:41;;;;;;;17.53;9.17;;;;;;;4.31;58.68;98833.73;2173105;81;21134;-79
2021/03/17 13:17:42;;;;;;;17.13;9.13;;;;;;;4.40;58.52;98838.38;2172663;82;21341;-79
2021/03/17 13:20:43;;;;;;;18.83;10.27;;;;;;;4.45;57.88;98837.72;2173523;81;21462;-80
2021/03/17 13:23:45;;;;;;;15.47;9.63;;;;;;;4.53;57.98;98842.28;2173491;82;21590;-79
2021/03/17 13:26:48;;;;;;;11.77;9.10;;;;;;;4.58;57.97;98830.39;2174108;82;21256;-78
2021/03/17 13:29:50;;;;;;;13.80;9.03;;;;;;;4.61;58.21;98833.09;2175032;81;21575;-79
2021/03/17 13:32:51;;;;;;;11.20;9.50;;;;;;;4.62;57.66;98848.66;2175856;82;21126;-79
2021/03/17 13:35:52;;;;;;;17.13;10.60;;;;;;;4.56;57.18;98841.09;2174605;81;21260;-77
2021/03/17 13:38:53;;;;;;;11.13;9.97;;;;;;;4.51;57.49;98842.64;2174989;81;21201;-81
2021/03/17 13:41:54;;;;;;;14.07;10.00;;;;;;;4.39;57.33;98837.91;2175603;81;21102;-81
2021/03/17 13:45:01;;;;;;;13.37;10.50;;;;;;;4.38;57.52;98852.55;2177213;81;21279;-81
2021/03/17 13:48:09;;;;;;;12.57;9.80;;;;;;;4.35;57.55;98851.55;2175665;81;21319;-79
2021/03/17 13:51:21;;;;;;;14.77;11.23;;;;;;;4.31;57.84;98849.23;2175747;81;21264;-80
2021/03/17 13:54:32;;;;;;;12.83;11.50;;;;;;;4.37;58.29;98848.61;2176130;82;21275;-79
2021/03/17 13:57:33;;;;;;;13.50;11.03;;;;;;;4.44;57.71;98863.52;2176034;81;21189;-79
2021/03/17 14:00:35;;;;;;;12.97;11.57;;;;;;;4.47;58.03;98858.45;2176796;81;21300;-79